Time;durP1;ratioP1;P1;durP2;ratioP2;P2;SDS_P1;SDS_P2;PMS_P1;PMS_P2;Temp;Humidity;BMP_temperature;BMP_pressure;BME280_temperature;BME280_humidity;BME280_pressure;Samples;Min_cycle;Max_cycle;Signal;HPM_P1;HPM_P2
2023/05/26 00:01:32;;;;;;;15.30;4.53;;;;;;;8.26;63.93;100241.31;1755759;79;20957;-61
2023/05/26 00:03:59;;;;;;;14.80;4.53;;;;;;;8.28;64.09;100235.59;1764881;79;21060;-60
2023/05/26 00:06:25;;;;;;;14.87;3.98;;;;;;;8.27;64.04;100236.50;1766278;79;21011;-61
2023/05/26 00:08:52;;;;;;;11.53;4.03;;;;;;;8.19;63.92;100235.88;1758250;79;21039;-61
2023/05/26 00:11:18;;;;;;;12.18;3.90;;;;;;;8.14;64.03;100235.15;1760088;79;21038;-60
2023/05/26 00:13:47;;;;;;;11.93;4.12;;;;;;;8.09;64.04;100226.63;1755457;79;20974;-61
2023/05/26 00:16:13;;;;;;;11.78;4.17;;;;;;;8.03;64.21;100229.41;1761083;79;21031;-61
2023/05/26 00:18:39;;;;;;;12.07;3.87;;;;;;;8.02;64.29;100235.52;1758530;79;20933;-60
2023/05/26 00:21:06;;;;;;;11.78;4.33;;;;;;;7.98;64.46;100233.45;1755126;79;21009;-60
2023/05/26 00:23:32;;;;;;;11.57;4.25;;;;;;;7.95;64.41;100232.22;1758976;79;20960;-60
2023/05/26 00:25:59;;;;;;;11.38;4.45;;;;;;;7.93;64.49;100235.78;1757101;79;20949;-60
2023/05/26 00:28:26;;;;;;;9.70;3.40;;;;;;;7.91;64.69;100232.37;1757682;79;21012;-61
2023/05/26 00:30:55;;;;;;;15.75;4.62;;;;;;;7.95;64.77;100234.81;1754840;79;21048;-61
2023/05/26 00:33:21;;;;;;;11.28;3.15;;;;;;;7.93;64.71;100230.58;1757114;79;21073;-60
2023/05/26 00:35:47;;;;;;;12.98;4.28;;;;;;;7.90;64.80;100225.44;1752569;79;20972;-61
2023/05/26 00:38:14;;;;;;;10.65;3.70;;;;;;;7.86;64.94;100235.08;1766566;78;21033;-61
2023/05/26 00:40:40;;;;;;;10.93;3.72;;;;;;;7.87;65.01;100233.33;1754760;79;21019;-63
2023/05/26 00:43:06;;;;;;;12.07;3.80;;;;;;;7.81;64.86;100231.75;1767644;79;21028;-60
2023/05/26 00:45:33;;;;;;;11.20;4.00;;;;;;;7.78;65.03;100227.48;1761145;79;20966;-61
2023/05/26 00:47:59;;;;;;;13.75;4.40;;;;;;;7.76;65.03;100230.60;1764764;79;21017;-60
2023/05/26 00:50:29;;;;;;;12.88;4.17;;;;;;;7.69;65.00;100232.95;1765724;79;21105;-60
2023/05/26 00:52:59;;;;;;;16.15;4.20;;;;;;;7.62;64.98;100235.33;1754448;79;20975;-60
2023/05/26 00:55:25;;;;;;;10.75;4.20;;;;;;;7.55;65.23;100235.07;1762142;79;21008;-60
2023/05/26 00:57:51;;;;;;;16.60;4.45;;;;;;;7.61;65.63;100224.50;1755295;79;21468;-60
2023/05/26 01:00:18;;;;;;;11.95;4.28;;;;;;;7.64;65.49;100233.52;1760119;79;21468;-61
2023/05/26 01:02:47;;;;;;;12.70;3.95;;;;;;;7.62;65.51;100234.03;1762782;80;21091;-60
2023/05/26 01:05:15;;;;;;;14.07;4.10;;;;;;;7.60;65.45;100238.41;1757678;78;21007;-61
2023/05/26 01:07:42;;;;;;;14.35;3.80;;;;;;;7.54;65.53;100237.28;1700763;83;20974;-61
2023/05/26 01:10:10;;;;;;;14.93;3.80;;;;;;;7.55;65.83;100235.07;1747784;80;21036;-60
2023/05/26 01:12:42;;;;;;;13.72;3.72;;;;;;;7.57;65.86;100238.48;1747117;80;21132;-61
2023/05/26 01:15:25;;;;;;;12.90;3.72;;;;;;;7.59;66.05;100236.71;1741897;80;21002;-59
2023/05/26 01:18:13;;;;;;;12.00;3.85;;;;;;;7.59;66.03;100240.61;1720655;81;21577;-60
2023/05/26 01:20:53;;;;;;;10.88;3.75;;;;;;;7.56;65.87;100244.56;1727856;80;21021;-61
2023/05/26 01:23:20;;;;;;;9.25;3.55;;;;;;;7.48;65.71;100238.71;1678175;83;21008;-61
2023/05/26 01:25:58;;;;;;;12.85;4.58;;;;;;;7.36;65.80;100234.69;1748575;78;21582;-60
2023/05/26 01:28:30;;;;;;;13.78;3.65;;;;;;;7.27;65.74;100229.29;1751354;79;21411;-61
2023/05/26 01:30:58;;;;;;;9.18;3.72;;;;;;;7.18;65.91;100229.08;1744518;80;21013;-61
2023/05/26 01:33:25;;;;;;;15.20;3.40;;;;;;;7.15;65.98;100218.77;1746235;80;21045;-61
2023/05/26 01:35:51;;;;;;;10.75;3.75;;;;;;;7.09;65.94;100221.98;1741302;80;20911;-60
2023/05/26 01:38:18;;;;;;;10.45;3.80;;;;;;;7.03;66.14;100233.37;1742874;80;21011;-61
2023/05/26 01:40:51;;;;;;;15.08;4.65;;;;;;;7.11;66.58;100226.67;1746450;80;20967;-61
2023/05/26 01:43:28;;;;;;;11.40;3.98;;;;;;;7.20;66.69;100229.06;1737545;80;21642;-61
2023/05/26 01:45:57;;;;;;;13.08;4.03;;;;;;;7.20;66.64;100223.86;1743745;79;21543;-61
2023/05/26 01:48:24;;;;;;;12.20;3.27;;;;;;;7.23;66.78;100223.78;1704471;82;21045;-60
2023/05/26 01:50:59;;;;;;;13.45;4.08;;;;;;;7.25;66.51;100232.37;1743906;80;21496;-61
2023/05/26 01:53:28;;;;;;;13.68;3.60;;;;;;;7.14;66.35;100225.29;1740852;80;21009;-60
2023/05/26 01:55:58;;;;;;;10.98;4.30;;;;;;;7.09;66.53;100223.28;1737553;80;21025;-60
2023/05/26 01:58:26;;;;;;;12.35;3.52;;;;;;;7.01;66.62;100227.81;1744078;80;21021;-61
2023/05/26 02:00:59;;;;;;;10.13;3.25;;;;;;;6.99;66.79;100229.58;1725914;80;21022;-60
2023/05/26 02:03:27;;;;;;;10.98;3.92;;;;;;;6.97;66.99;100222.27;1745365;80;20987;-60
2023/05/26 02:05:53;;;;;;;10.63;4.35;;;;;;;6.93;67.00;100235.78;1741583;79;21536;-61
2023/05/26 02:08:22;;;;;;;10.98;3.55;;;;;;;6.94;67.20;100233.13;1731468;80;21507;-60
2023/05/26 02:10:49;;;;;;;9.70;3.42;;;;;;;6.91;67.05;100230.61;1707289;82;21117;-60
2023/05/26 02:13:17;;;;;;;8.75;3.98;;;;;;;6.82;67.08;100233.43;1708589;82;20919;-61
2023/05/26 02:15:43;;;;;;;13.25;3.72;;;;;;;6.84;67.63;100231.66;1714525;81;21041;-61
2023/05/26 02:18:10;;;;;;;8.95;3.42;;;;;;;6.85;67.61;100235.95;1666075;84;21104;-62
2023/05/26 02:20:37;;;;;;;8.50;3.67;;;;;;;6.77;67.29;100226.19;1714597;82;21060;-63
2023/05/26 02:23:03;;;;;;;8.83;3.55;;;;;;;6.72;67.46;100231.93;1714006;82;21062;-60
2023/05/26 02:25:31;;;;;;;10.43;3.35;;;;;;;6.73;67.56;100231.06;1714377;82;21202;-62
2023/05/26 02:27:57;;;;;;;16.15;3.83;;;;;;;6.72;67.61;100231.93;1713134;82;21668;-61
2023/05/26 02:30:23;;;;;;;13.80;4.20;;;;;;;6.71;67.76;100235.42;1710669;81;21525;-61
2023/05/26 02:32:49;;;;;;;11.78;4.75;;;;;;;6.67;67.68;100237.25;1723853;82;20971;-60
2023/05/26 02:35:20;;;;;;;13.95;3.72;;;;;;;6.64;67.77;100233.87;1709169;82;20987;-60
2023/05/26 02:37:47;;;;;;;16.35;4.58;;;;;;;6.58;67.75;100239.18;1709743;82;20978;-61
2023/05/26 02:40:19;;;;;;;13.00;3.77;;;;;;;6.54;68.18;100234.96;1711896;82;21482;-60
2023/05/26 02:42:47;;;;;;;11.65;3.40;;;;;;;6.59;68.38;100238.31;1675433;84;21098;-60
2023/05/26 02:45:13;;;;;;;12.13;3.15;;;;;;;6.57;68.27;100242.67;1714054;82;21339;-60
2023/05/26 02:47:39;;;;;;;11.10;4.22;;;;;;;6.62;68.46;100241.69;1705534;82;20979;-61
2023/05/26 02:50:07;;;;;;;11.23;3.77;;;;;;;6.62;68.36;100236.94;1705434;83;20941;-60
2023/05/26 02:52:33;;;;;;;11.55;3.90;;;;;;;6.61;68.47;100236.52;1719435;81;20974;-61
2023/05/26 02:54:59;;;;;;;17.42;3.80;;;;;;;6.62;68.57;100233.05;1718422;81;21017;-63
2023/05/26 02:57:26;;;;;;;13.08;4.28;;;;;;;6.65;68.66;100236.87;1707318;82;21725;-61
2023/05/26 02:59:54;;;;;;;12.68;4.03;;;;;;;6.68;68.67;100236.34;1703809;82;21033;-60
2023/05/26 03:02:20;;;;;;;17.50;4.17;;;;;;;6.73;68.90;100238.84;1708652;82;21070;-61
2023/05/26 03:04:47;;;;;;;29.97;4.63;;;;;;;6.78;69.06;100247.38;1717268;81;21110;-60
2023/05/26 03:07:13;;;;;;;16.90;3.70;;;;;;;6.86;69.23;100242.87;1675066;84;21041;-60
2023/05/26 03:09:39;;;;;;;11.48;4.03;;;;;;;6.90;69.09;100238.00;1678617;83;21087;-60
2023/05/26 03:12:07;;;;;;;13.28;4.00;;;;;;;6.98;69.43;100240.87;1682313;83;21484;-60
2023/05/26 03:14:36;;;;;;;18.75;4.90;;;;;;;7.06;69.64;100239.79;1717808;81;21038;-61
2023/05/26 03:17:06;;;;;;;54.08;7.22;;;;;;;7.09;69.45;100243.61;1716201;81;21600;-60
2023/05/26 03:19:32;;;;;;;55.80;7.80;;;;;;;7.15;69.54;100243.89;1684402;83;20994;-61
2023/05/26 03:22:01;;;;;;;21.07;5.60;;;;;;;7.23;69.71;100239.37;1683962;83;21002;-60
2023/05/26 03:24:29;;;;;;;11.83;4.60;;;;;;;7.33;69.91;100243.41;1737502;80;21093;-61
2023/05/26 03:27:01;;;;;;;12.03;4.72;;;;;;;7.44;70.07;100237.09;1713172;81;21512;-61
2023/05/26 03:29:29;;;;;;;18.75;4.87;;;;;;;7.52;69.98;100237.75;1719651;81;21017;-60
2023/05/26 03:31:56;;;;;;;14.80;3.85;;;;;;;7.61;70.15;100238.80;1719979;81;20939;-61
2023/05/26 03:34:24;;;;;;;17.73;3.80;;;;;;;7.69;69.98;100239.45;1723123;81;21064;-61
2023/05/26 03:36:52;;;;;;;12.33;3.70;;;;;;;7.69;69.93;100239.45;1717794;81;21041;-60
2023/05/26 03:39:22;;;;;;;15.18;4.20;;;;;;;7.77;70.20;100236.20;1727428;80;21098;-61
2023/05/26 03:41:48;;;;;;;11.38;3.95;;;;;;;7.84;70.37;100232.55;1727959;81;21564;-61
2023/05/26 03:44:18;;;;;;;17.52;4.20;;;;;;;7.97;70.32;100235.64;1720090;81;21044;-61
2023/05/26 03:46:46;;;;;;;35.28;5.72;;;;;;;8.02;70.27;100234.22;1697855;81;21065;-61
2023/05/26 03:49:12;;;;;;;22.77;5.75;;;;;;;8.13;70.61;100232.16;1724220;81;21017;-61
2023/05/26 03:51:45;;;;;;;57.98;7.90;;;;;;;8.28;70.53;100232.14;1721895;81;21029;-61
2023/05/26 03:54:09;;;;;;;29.55;6.15;;;;;;;8.37;70.50;100232.31;1716663;81;21046;-61
2023/05/26 03:57:08;;;;;;;;;;;;;;;;;;;;;
2023/05/26 03:59:14;;;;;;;26.17;5.25;;;;;;;8.54;70.70;100226.17;1706135;80;21042;-61
2023/05/26 04:01:39;;;;;;;18.65;4.15;;;;;;;8.62;70.69;100234.60;1720693;81;21026;-61
2023/05/26 04:04:07;;;;;;;20.90;5.00;;;;;;;8.71;70.77;100230.86;1721355;81;20954;-62
2023/05/26 04:06:35;;;;;;;20.45;5.03;;;;;;;8.81;70.96;100231.44;1717779;81;21117;-63
2023/05/26 04:09:05;;;;;;;14.10;3.83;;;;;;;8.84;70.58;100230.03;1706421;81;21065;-61
2023/05/26 04:11:31;;;;;;;18.75;4.85;;;;;;;8.88;70.65;100227.75;1707952;82;21009;-61
2023/05/26 04:13:58;;;;;;;17.75;3.80;;;;;;;8.97;70.86;100232.66;1708721;82;21073;-62
2023/05/26 04:16:28;;;;;;;16.85;4.37;;;;;;;9.07;70.97;100234.03;1708327;81;21038;-62
2023/05/26 04:18:56;;;;;;;12.90;4.15;;;;;;;9.22;70.98;100239.67;1702885;82;20982;-62
2023/05/26 04:21:24;;;;;;;27.58;5.30;;;;;;;9.37;71.08;100244.34;1706292;82;21077;-61
2023/05/26 04:23:52;;;;;;;18.15;4.12;;;;;;;9.49;71.13;100240.00;1705737;82;20993;-61
2023/05/26 04:26:21;;;;;;;12.05;3.58;;;;;;;9.62;71.10;100241.75;1699616;82;20990;-61
2023/05/26 04:28:48;;;;;;;15.50;4.40;;;;;;;9.71;70.87;100241.41;1709315;82;21034;-61
2023/05/26 04:31:17;;;;;;;15.13;3.45;;;;;;;9.77;70.79;100243.80;1705248;82;20962;-63
2023/05/26 04:33:45;;;;;;;17.52;5.15;;;;;;;9.88;71.07;100244.72;1706446;82;21062;-61
2023/05/26 04:36:19;;;;;;;15.50;3.95;;;;;;;9.99;70.94;100241.27;1707664;82;21077;-61
2023/05/26 04:38:45;;;;;;;11.90;3.80;;;;;;;10.08;70.90;100251.39;1714496;82;21716;-61
2023/05/26 04:41:12;;;;;;;13.70;4.03;;;;;;;10.18;71.11;100251.05;1710445;82;21003;-62
2023/05/26 04:43:43;;;;;;;11.85;3.30;;;;;;;10.35;71.14;100256.52;1708675;82;21477;-61
2023/05/26 04:46:16;;;;;;;14.73;3.50;;;;;;;10.46;71.08;100251.73;1708182;81;21042;-61
2023/05/26 04:48:38;;;;;;;17.10;4.25;;;;;;;10.62;71.09;100251.16;1711797;82;22195;-61
2023/05/26 04:51:07;;;;;;;10.03;3.33;;;;;;;10.76;71.10;100256.69;1706481;82;21037;-62
2023/05/26 04:53:33;;;;;;;17.17;3.72;;;;;;;10.89;71.06;100248.73;1710597;82;21540;-61
2023/05/26 04:56:01;;;;;;;10.48;3.60;;;;;;;11.10;71.15;100251.41;1709680;82;21005;-61
2023/05/26 04:58:28;;;;;;;9.58;3.47;;;;;;;11.27;71.19;100250.25;1710678;82;20959;-62
2023/05/26 05:00:56;;;;;;;8.55;3.00;;;;;;;11.42;70.95;100249.59;1708318;82;21003;-61
2023/05/26 05:03:24;;;;;;;11.05;3.42;;;;;;;11.60;71.07;100249.75;1711935;81;21459;-60
2023/05/26 05:05:52;;;;;;;10.03;3.25;;;;;;;11.77;70.77;100248.55;1707011;82;21481;-62
2023/05/26 05:08:21;;;;;;;19.05;4.12;;;;;;;11.94;70.82;100253.53;1709324;82;21486;-60
2023/05/26 05:10:52;;;;;;;9.78;2.87;;;;;;;12.06;70.56;100250.36;1752061;79;21631;-62
2023/05/26 05:13:19;;;;;;;11.12;2.90;;;;;;;12.17;70.69;100246.80;1757287;79;21057;-62
2023/05/26 05:15:47;;;;;;;12.18;3.30;;;;;;;12.33;70.57;100244.80;1760141;79;21586;-61
2023/05/26 05:18:13;;;;;;;12.75;2.92;;;;;;;12.43;70.36;100243.44;1758206;79;21038;-62
2023/05/26 05:20:46;;;;;;;14.00;2.77;;;;;;;12.59;70.30;100244.41;1749140;81;20992;-60
2023/05/26 05:23:11;;;;;;;8.10;2.80;;;;;;;12.69;70.14;100247.00;1743455;79;21155;-62
2023/05/26 05:25:40;;;;;;;13.68;3.25;;;;;;;12.80;69.93;100248.23;1757011;79;20923;-61
2023/05/26 05:28:13;;;;;;;9.53;3.20;;;;;;;12.93;70.03;100254.59;1757442;79;20999;-61
2023/05/26 05:30:39;;;;;;;18.60;4.28;;;;;;;13.13;69.95;100249.68;1756132;79;21055;-62
2023/05/26 05:33:10;;;;;;;8.50;2.70;;;;;;;13.37;69.92;100250.28;1757022;79;21042;-62
2023/05/26 05:35:36;;;;;;;12.68;2.95;;;;;;;13.56;69.63;100258.07;1758144;79;21889;-61
2023/05/26 05:38:05;;;;;;;14.07;3.43;;;;;;;13.62;69.09;100257.28;1762380;79;21003;-61
2023/05/26 05:40:32;;;;;;;9.18;3.15;;;;;;;13.65;69.08;100263.69;1748459;79;21642;-65
2023/05/26 05:42:58;;;;;;;9.23;3.27;;;;;;;13.74;68.78;100264.98;1759205;80;21051;-62
2023/05/26 05:45:25;;;;;;;10.55;3.00;;;;;;;13.85;69.01;100261.80;1762427;79;20949;-64
2023/05/26 05:47:55;;;;;;;12.35;3.25;;;;;;;13.98;68.74;100260.23;1757000;79;21014;-61
2023/05/26 05:50:20;;;;;;;8.75;2.85;;;;;;;14.08;68.69;100261.43;1760587;79;20984;-62
2023/05/26 05:52:47;;;;;;;10.20;3.17;;;;;;;14.16;68.34;100264.13;1757368;79;21011;-62
2023/05/26 05:55:13;;;;;;;12.80;3.77;;;;;;;14.23;68.19;100255.00;1755066;79;21113;-63
2023/05/26 05:57:40;;;;;;;10.43;3.55;;;;;;;14.39;67.71;100257.63;1758465;79;21109;-62
2023/05/26 06:00:11;;;;;;;11.83;3.20;;;;;;;14.53;67.80;100262.53;1758194;79;21152;-62
2023/05/26 06:02:37;;;;;;;10.13;2.83;;;;;;;14.67;67.23;100256.98;1755085;79;21003;-62
2023/05/26 06:05:05;;;;;;;9.65;2.98;;;;;;;14.73;67.21;100260.58;1763277;79;21064;-60
2023/05/26 06:07:32;;;;;;;12.95;3.87;;;;;;;14.86;67.23;100269.48;1761399;79;21316;-60
2023/05/26 06:09:59;;;;;;;9.58;3.22;;;;;;;15.09;67.03;100269.95;1756347;78;21097;-61
2023/05/26 06:12:26;;;;;;;12.55;3.98;;;;;;;15.27;66.76;100270.22;1753362;79;21068;-61
2023/05/26 06:14:52;;;;;;;9.68;3.22;;;;;;;15.39;66.56;100265.55;1750709;79;21009;-61
2023/05/26 06:17:18;;;;;;;13.83;3.70;;;;;;;15.53;65.77;100273.11;1757966;79;20950;-66
2023/05/26 06:19:45;;;;;;;11.15;3.52;;;;;;;15.55;65.77;100272.56;1754190;79;21001;-61
2023/05/26 06:22:11;;;;;;;18.15;3.60;;;;;;;15.65;65.79;100275.00;1756365;79;21117;-61
2023/05/26 06:24:38;;;;;;;20.47;4.20;;;;;;;15.75;65.18;100276.19;1753912;79;21014;-60
2023/05/26 06:27:04;;;;;;;15.33;3.50;;;;;;;15.82;64.20;100281.48;1759731;79;20981;-64
2023/05/26 06:29:31;;;;;;;12.20;3.90;;;;;;;15.76;64.58;100278.34;1759364;79;21029;-67
2023/05/26 06:31:57;;;;;;;11.03;3.22;;;;;;;15.87;64.80;100287.30;1760845;79;21357;-61
2023/05/26 06:34:23;;;;;;;10.82;3.30;;;;;;;16.10;64.84;100285.05;1752795;79;21018;-67
2023/05/26 06:36:50;;;;;;;10.15;3.20;;;;;;;16.28;64.38;100281.30;1757033;79;21039;-63
2023/05/26 06:39:17;;;;;;;;;;;;;;;16.51;64.13;100289.55;1762657;79;20994;-67
2023/05/26 06:41:45;;;;;;;11.50;3.60;;;;;;;16.68;63.13;100289.33;1757855;78;20430;-62
2023/05/26 06:44:20;;;;;;;8.90;3.25;;;;;;;16.98;63.72;100288.34;1732209;79;21010;-67
2023/05/26 06:46:41;;;;;;;9.70;3.55;;;;;;;17.40;64.03;100291.75;1752071;79;21009;-62
2023/05/26 06:49:07;;;;;;;10.90;3.95;;;;;;;17.75;63.04;100291.16;1760152;79;21003;-61
2023/05/26 06:51:34;;;;;;;10.65;3.67;;;;;;;18.08;63.13;100284.91;1762198;79;21034;-65
2023/05/26 06:54:01;;;;;;;17.85;4.78;;;;;;;18.61;62.82;100285.20;1755776;79;21080;-62
2023/05/26 06:56:28;;;;;;;22.13;4.30;;;;;;;19.27;63.24;100286.55;1750838;79;20943;-64
2023/05/26 06:58:54;;;;;;;11.78;3.47;;;;;;;20.08;62.81;100287.45;1756592;79;21009;-63
2023/05/26 07:01:20;;;;;;;14.80;4.47;;;;;;;21.16;62.45;100285.88;1751965;80;21090;-62
2023/05/26 07:03:47;;;;;;;16.20;5.03;;;;;;;22.08;61.40;100284.77;1758521;79;20975;-63
2023/05/26 07:06:13;;;;;;;21.45;4.95;;;;;;;22.92;60.32;100283.66;1753053;79;20985;-62
2023/05/26 07:08:39;;;;;;;7.80;3.57;;;;;;;23.56;60.47;100283.62;1754778;79;20951;-67
2023/05/26 07:11:06;;;;;;;14.93;4.57;;;;;;;24.10;58.16;100279.43;1757131;79;21095;-65
2023/05/26 07:13:33;;;;;;;19.00;4.80;;;;;;;24.50;56.45;100278.29;1757138;79;20918;-66
2023/05/26 07:16:00;;;;;;;13.30;3.93;;;;;;;24.95;57.31;100285.45;1765704;80;21681;-67
2023/05/26 07:18:26;;;;;;;16.85;4.65;;;;;;;25.38;56.02;100286.56;1763887;79;21008;-67
2023/05/26 07:20:52;;;;;;;20.97;4.30;;;;;;;25.78;55.56;100266.46;1760606;79;20950;-62
2023/05/26 07:23:21;;;;;;;13.55;4.53;;;;;;;26.06;54.53;100276.02;1762728;79;21084;-67
2023/05/26 07:25:50;;;;;;;16.25;4.47;;;;;;;26.35;52.27;100277.48;1755005;79;21493;-64
2023/05/26 07:28:16;;;;;;;15.70;5.33;;;;;;;26.30;53.07;100277.15;1760132;79;21064;-64
2023/05/26 07:30:44;;;;;;;18.90;4.72;;;;;;;26.39;51.78;100277.52;1770388;79;21071;-66
2023/05/26 07:33:13;;;;;;;18.75;5.67;;;;;;;26.77;51.70;100282.00;1759157;79;21035;-65
2023/05/26 07:35:39;;;;;;;17.00;5.08;;;;;;;26.89;50.01;100283.38;1761060;80;21649;-62
2023/05/26 07:38:05;;;;;;;23.07;5.53;;;;;;;27.06;49.64;100286.09;1766468;79;20980;-63
2023/05/26 07:40:34;;;;;;;19.70;5.15;;;;;;;27.54;49.00;100281.78;1759510;80;21018;-65
2023/05/26 07:43:00;;;;;;;17.82;5.70;;;;;;;27.93;48.15;100279.73;1759989;79;21029;-65
2023/05/26 07:45:29;;;;;;;16.48;4.85;;;;;;;28.26;45.92;100279.96;1760289;79;21019;-65
2023/05/26 07:47:55;;;;;;;36.53;6.78;;;;;;;28.48;47.29;100281.56;1757716;79;21046;-67
2023/05/26 07:50:35;;;;;;;21.75;5.97;;;;;;;29.22;47.74;100278.78;1758039;79;21058;-67
2023/05/26 07:52:52;;;;;;;23.27;6.08;;;;;;;30.08;46.23;100285.20;1757111;79;21044;-65
2023/05/26 07:55:25;;;;;;;14.20;4.67;;;;;;;30.73;46.38;100278.20;1755713;79;21014;-70
2023/05/26 07:57:50;;;;;;;25.80;5.20;;;;;;;31.48;45.17;100280.09;1759849;79;21133;-64
2023/05/26 08:00:18;;;;;;;23.32;5.50;;;;;;;32.23;43.87;100278.53;1744006;79;21621;-63
2023/05/26 08:02:48;;;;;;;24.67;6.33;;;;;;;32.79;43.11;100269.41;1756132;79;22059;-63
2023/05/26 08:05:18;;;;;;;17.92;5.70;;;;;;;33.28;42.69;100279.10;1745998;79;21040;-70
2023/05/26 08:07:44;;;;;;;36.70;6.53;;;;;;;33.32;40.74;100270.87;1754853;79;21094;-62
2023/05/26 08:10:11;;;;;;;20.10;5.83;;;;;;;33.15;39.58;100284.80;1756510;79;21042;-65
2023/05/26 08:12:38;;;;;;;23.65;5.50;;;;;;;33.02;39.04;100287.48;1715425;81;20945;-71
2023/05/26 08:15:16;;;;;;;30.20;5.15;;;;;;;33.13;38.57;100279.28;1713035;81;20961;-65
2023/05/26 08:17:41;;;;;;;37.45;6.28;;;;;;;33.39;37.58;100281.19;1724228;81;21057;-66
2023/05/26 08:20:12;;;;;;;35.43;5.95;;;;;;;33.36;36.16;100279.72;1715378;81;21046;-66
2023/05/26 08:22:38;;;;;;;19.70;5.80;;;;;;;33.40;35.27;100293.66;1714220;80;21674;-63
2023/05/26 08:25:10;;;;;;;44.48;5.55;;;;;;;33.43;34.44;100285.13;1713370;81;21519;-62
2023/05/26 08:27:37;;;;;;;45.23;6.42;;;;;;;33.90;32.88;100288.66;1724831;81;20915;-63
2023/05/26 08:30:04;;;;;;;27.95;5.00;;;;;;;33.55;32.78;100288.06;1721209;80;21132;-65
2023/05/26 08:32:30;;;;;;;31.37;6.78;;;;;;;33.40;31.90;100296.38;1717424;81;20981;-65
2023/05/26 08:34:58;;;;;;;21.12;5.00;;;;;;;33.30;31.83;100290.53;1724037;81;21005;-71
2023/05/26 08:37:24;;;;;;;11.35;4.15;;;;;;;33.44;31.49;100290.84;1715078;81;21052;-63
2023/05/26 08:39:57;;;;;;;18.87;4.53;;;;;;;33.54;30.83;100285.88;1728914;81;21152;-63
2023/05/26 08:42:32;;;;;;;29.87;5.72;;;;;;;34.07;30.67;100298.02;1715168;81;21484;-62
2023/05/26 08:44:58;;;;;;;15.03;4.60;;;;;;;34.35;29.55;100292.83;1713798;81;20969;-63
2023/05/26 08:47:30;;;;;;;13.20;4.25;;;;;;;34.29;28.86;100287.73;1720708;80;21010;-63
2023/05/26 08:50:05;;;;;;;23.18;5.25;;;;;;;34.05;28.77;100294.67;1719505;81;21052;-62
2023/05/26 08:52:33;;;;;;;21.52;4.53;;;;;;;33.84;28.25;100300.34;1715308;81;20981;-63
2023/05/26 08:54:59;;;;;;;20.75;5.28;;;;;;;33.92;26.58;100294.70;1716204;81;21048;-63
2023/05/26 08:57:31;;;;;;;27.62;4.70;;;;;;;33.58;26.87;100295.27;1721149;81;21120;-68
2023/05/26 09:00:02;;;;;;;23.05;5.72;;;;;;;33.53;26.53;100296.41;1715073;81;21433;-65
2023/05/26 09:02:26;;;;;;;18.60;4.45;;;;;;;33.67;27.17;100295.02;1722240;81;20974;-64
2023/05/26 09:04:53;;;;;;;21.82;5.05;;;;;;;34.46;26.12;100305.70;1725395;80;20975;-63
2023/05/26 09:07:21;;;;;;;23.45;4.92;;;;;;;34.86;25.06;100287.90;1725152;81;21033;-64
2023/05/26 09:09:50;;;;;;;22.55;5.17;;;;;;;34.73;25.20;100306.95;1716699;81;21068;-64
2023/05/26 09:12:17;;;;;;;26.85;5.40;;;;;;;34.65;25.10;100303.16;1757231;79;21072;-64
2023/05/26 09:14:48;;;;;;;17.17;4.72;;;;;;;34.71;24.15;100303.65;1755135;79;21089;-65
2023/05/26 09:17:15;;;;;;;22.90;4.83;;;;;;;34.58;24.67;100317.27;1719681;81;21465;-65
2023/05/26 09:19:46;;;;;;;18.12;4.67;;;;;;;34.48;23.68;100310.40;1753099;79;21081;-62
2023/05/26 09:22:13;;;;;;;20.55;4.87;;;;;;;34.34;23.68;100310.64;1750852;79;21002;-66
2023/05/26 09:24:50;;;;;;;47.08;5.33;;;;;;;34.37;23.52;100309.72;1757406;79;21522;-68
2023/05/26 09:27:23;;;;;;;23.75;4.60;;;;;;;34.38;23.20;100305.95;1739838;80;21503;-65
2023/05/26 09:29:53;;;;;;;42.43;5.12;;;;;;;34.33;23.21;100322.55;1750023;79;21567;-69
2023/05/26 09:32:38;;;;;;;25.15;4.90;;;;;;;34.27;22.83;100312.03;1752700;78;21057;-65
2023/05/26 09:34:59;;;;;;;23.02;5.08;;;;;;;34.18;22.86;100322.80;1742857;78;21005;-66
2023/05/26 09:37:31;;;;;;;17.02;5.12;;;;;;;34.11;22.44;100316.55;1745050;79;21515;-65
2023/05/26 09:40:12;;;;;;;19.17;5.28;;;;;;;34.23;22.69;100323.00;1761479;79;20947;-64
2023/05/26 09:42:40;;;;;;;17.77;4.15;;;;;;;34.74;22.40;100327.63;1750996;79;20970;-68
2023/05/26 09:45:07;;;;;;;24.07;5.47;;;;;;;35.10;22.18;100331.63;1765037;79;21011;-73
2023/05/26 09:47:36;;;;;;;29.30;5.60;;;;;;;35.31;21.47;100338.04;1759296;79;21026;-65
2023/05/26 09:50:08;;;;;;;19.35;4.33;;;;;;;35.27;21.24;100331.41;1756193;79;20978;-69
2023/05/26 09:52:36;;;;;;;37.48;5.60;;;;;;;35.04;21.19;100324.30;1751833;80;21595;-64
2023/05/26 09:55:03;;;;;;;12.78;4.42;;;;;;;35.27;21.46;100337.36;1754998;79;21525;-65
2023/05/26 09:57:39;;;;;;;28.47;5.22;;;;;;;35.78;20.93;100343.95;1796364;77;21066;-75
2023/05/26 10:00:09;;;;;;;23.73;5.03;;;;;;;35.86;20.74;100342.85;1760618;79;21002;-64
2023/05/26 10:02:36;;;;;;;13.30;4.12;;;;;;;35.86;20.66;100335.52;1763014;79;21513;-65
2023/05/26 10:05:06;;;;;;;15.32;4.47;;;;;;;36.15;20.14;100337.24;1789736;78;20967;-64
2023/05/26 10:07:39;;;;;;;17.45;4.60;;;;;;;35.93;20.23;100348.20;1762795;79;21009;-66
2023/05/26 10:10:06;;;;;;;37.38;5.53;;;;;;;36.45;19.93;100344.66;1740132;80;21454;-70
2023/05/26 10:12:35;;;;;;;16.52;4.33;;;;;;;36.69;19.89;100343.76;1761107;79;21663;-63
2023/05/26 10:15:03;;;;;;;24.63;5.30;;;;;;;36.80;19.63;100339.94;1755811;80;21002;-69
2023/05/26 10:17:31;;;;;;;22.90;4.45;;;;;;;36.62;19.34;100352.52;1761823;79;20938;-70
2023/05/26 10:20:00;;;;;;;24.05;4.90;;;;;;;36.55;19.41;100346.31;1746959;80;21106;-66
2023/05/26 10:22:30;;;;;;;16.25;4.75;;;;;;;36.54;19.40;100339.23;1760832;80;21026;-65
2023/05/26 10:25:16;;;;;;;26.50;5.65;;;;;;;36.63;19.38;100351.45;1748858;79;21015;-65
2023/05/26 10:28:10;;;;;;;29.63;5.92;;;;;;;37.25;19.31;100346.33;1732965;80;21076;-71
2023/05/26 10:30:43;;;;;;;21.20;4.40;;;;;;;37.63;19.01;100352.23;1761214;79;21005;-65
2023/05/26 10:33:15;;;;;;;23.30;4.97;;;;;;;37.50;18.68;100345.64;1755867;79;20991;-66
2023/05/26 10:36:01;;;;;;;24.77;5.03;;;;;;;37.36;18.62;100346.89;1758587;79;21062;-65
2023/05/26 10:38:34;;;;;;;16.30;4.40;;;;;;;37.14;18.17;100356.98;1677669;83;21022;-70
2023/05/26 10:40:59;;;;;;;16.15;4.58;;;;;;;36.91;18.53;100354.12;1693315;83;21018;-66
2023/05/26 10:43:27;;;;;;;20.77;5.37;;;;;;;37.30;18.28;100349.19;1705675;82;21533;-64
2023/05/26 10:46:02;;;;;;;17.05;4.80;;;;;;;37.39;18.35;100364.12;1710531;82;21122;-65
2023/05/26 10:48:37;;;;;;;18.55;4.95;;;;;;;37.77;18.37;100356.93;1708562;82;21044;-64
2023/05/26 10:51:07;;;;;;;12.35;4.33;;;;;;;38.26;18.30;100360.77;1676080;82;21006;-67
2023/05/26 10:53:42;;;;;;;23.10;5.40;;;;;;;37.45;17.83;100365.94;1724775;81;21037;-64
2023/05/26 10:56:13;;;;;;;14.15;4.33;;;;;;;36.96;17.81;100366.52;1727700;81;21057;-64
2023/05/26 10:58:50;;;;;;;21.62;4.28;;;;;;;35.83;17.63;100364.50;1717738;81;22059;-65
2023/05/26 11:01:31;;;;;;;13.28;4.42;;;;;;;35.08;17.11;100350.00;1709569;81;21046;-63
2023/05/26 11:04:16;;;;;;;19.10;4.17;;;;;;;35.08;17.11;100350.00;1688842;83;20954;-63
2023/05/26 11:06:50;;;;;;;14.73;4.78;;;;;;;34.75;17.89;100362.65;1720829;81;21097;-64
2023/05/26 11:09:14;;;;;;;18.80;4.70;;;;;;;34.60;17.92;100382.97;1717844;81;21106;-64
2023/05/26 11:12:01;;;;;;;24.02;5.95;;;;;;;34.57;18.05;100374.73;1722474;81;21078;-64
2023/05/26 11:14:41;;;;;;;19.17;4.62;;;;;;;33.91;17.94;100364.80;1721667;80;21128;-64
2023/05/26 11:17:06;;;;;;;14.65;5.37;;;;;;;33.27;17.94;100377.55;1758846;79;21031;-63
2023/05/26 11:19:40;;;;;;;55.08;6.53;;;;;;;32.86;18.30;100381.16;1735800;80;20977;-64
2023/05/26 11:22:15;;;;;;;26.95;5.60;;;;;;;32.71;18.28;100376.73;1751223;79;21550;-64
2023/05/26 11:24:43;;;;;;;17.98;4.97;;;;;;;32.02;18.36;100382.94;1738311;80;21071;-65
2023/05/26 11:27:12;;;;;;;16.82;6.15;;;;;;;31.50;18.64;100394.09;1743075;80;21019;-64
2023/05/26 11:29:37;;;;;;;;;;;;;;;30.84;18.79;100392.30;1764486;79;21018;-64